Time;durP1;ratioP1;P1;durP2;ratioP2;P2;SDS_P1;SDS_P2;PMS_P1;PMS_P2;Temp;Humidity;BMP_temperature;BMP_pressure;BME280_temperature;BME280_humidity;BME280_pressure;Samples;Min_cycle;Max_cycle;Signal;HPM_P1;HPM_P2
2022/01/12 00:01:39;;;;;;;10.65;6.75;;;;;;;-7.22;64.86;100032.91;4884473;29;20707;-81
2022/01/12 00:04:07;;;;;;;13.48;7.20;;;;;;;-7.20;65.15;100046.75;4915257;29;20051;-82
2022/01/12 00:06:33;;;;;;;13.60;6.43;;;;;;;-7.17;65.16;100046.75;4884148;29;20051;-80
2022/01/12 00:09:05;;;;;;;11.05;6.75;;;;;;;-7.29;65.43;100046.72;4893934;29;20044;-81
2022/01/12 00:11:31;;;;;;;14.20;8.00;;;;;;;-7.23;64.93;100038.94;4906425;29;20420;-81
2022/01/12 00:13:57;;;;;;;14.85;7.40;;;;;;;-7.20;64.89;100040.69;4868670;29;20051;-81
2022/01/12 00:16:23;;;;;;;10.65;6.70;;;;;;;-7.26;64.97;100054.50;4899399;29;20050;-81
2022/01/12 00:18:49;;;;;;;14.50;7.55;;;;;;;-7.26;64.90;100049.31;4914988;29;20134;-80
2022/01/12 00:21:16;;;;;;;16.98;8.32;;;;;;;-7.37;65.04;100048.41;4914752;29;20047;-82
2022/01/12 00:23:42;;;;;;;11.65;6.75;;;;;;;-7.44;65.51;100051.88;4904524;29;20103;-80
2022/01/12 00:26:24;;;;;;;23.38;8.38;;;;;;;-7.47;65.36;100054.44;4915257;29;20044;-80
2022/01/12 00:34:26;;;;;;;16.15;7.22;;;;;;;-7.26;65.34;100059.72;4899196;29;20044;-80
2022/01/12 00:36:53;;;;;;;13.88;7.63;;;;;;;-7.32;65.29;100056.25;4916093;29;20087;-81
2022/01/12 00:39:19;;;;;;;14.02;7.22;;;;;;;-7.47;65.30;100044.06;4916614;29;20051;-80
2022/01/12 00:41:45;;;;;;;11.57;6.88;;;;;;;-7.42;65.15;100063.13;4934390;29;20055;-81
2022/01/12 00:44:21;;;;;;;11.70;6.82;;;;;;;-7.53;65.48;100057.00;4903569;29;20055;-80
2022/01/12 00:46:47;;;;;;;13.98;7.35;;;;;;;-7.74;65.64;100043.09;4933489;29;20134;-81
2022/01/12 00:49:13;;;;;;;13.82;7.35;;;;;;;-7.72;66.00;100046.53;4903140;29;20139;-80
2022/01/12 00:51:39;;;;;;;11.73;7.10;;;;;;;-7.64;65.75;100043.97;4903262;29;20044;-80
2022/01/12 00:54:06;;;;;;;12.13;6.85;;;;;;;-7.69;66.01;100046.56;4918668;29;20062;-81
2022/01/12 00:56:32;;;;;;;12.63;6.75;;;;;;;-7.75;65.86;100045.66;4903238;29;20055;-80
2022/01/12 00:58:58;;;;;;;11.75;6.70;;;;;;;-7.74;65.82;100050.00;4902811;29;20044;-80
2022/01/12 01:01:24;;;;;;;8.20;5.38;;;;;;;-7.86;66.06;100055.97;4871950;29;20075;-79
2022/01/12 01:03:50;;;;;;;11.98;6.43;;;;;;;-7.85;66.12;100055.13;4905205;29;20051;-82
2022/01/12 01:06:17;;;;;;;15.07;7.07;;;;;;;-7.86;66.27;100049.09;4905923;29;20051;-80
2022/01/12 01:08:44;;;;;;;13.27;7.18;;;;;;;-7.84;66.25;100057.72;4905736;29;20400;-81
2022/01/12 01:11:13;;;;;;;14.27;8.23;;;;;;;-7.82;66.16;100049.97;4921806;29;20059;-81
2022/01/12 01:13:56;;;;;;;14.02;7.95;;;;;;;-7.77;66.08;100053.44;4920800;29;20292;-81
2022/01/12 01:16:29;;;;;;;17.08;8.07;;;;;;;-7.83;66.24;100043.03;4903470;29;20047;-80
2022/01/12 01:27:18;;;;;;;12.02;6.97;;;;;;;-7.84;66.29;100056.88;4884205;29;20052;-80
2022/01/12 01:29:44;;;;;;;11.85;7.65;;;;;;;-7.79;65.92;100054.28;4883785;29;20059;-80
2022/01/12 01:32:12;;;;;;;15.73;7.65;;;;;;;-7.80;66.34;100065.53;4902841;29;20060;-80
2022/01/12 01:34:45;;;;;;;14.23;7.95;;;;;;;-7.79;65.99;100060.34;4917784;29;20048;-80
2022/01/12 01:37:11;;;;;;;10.57;6.50;;;;;;;-7.81;66.18;100072.47;4887693;29;20047;-80
2022/01/12 01:39:37;;;;;;;15.55;7.63;;;;;;;-7.87;66.29;100069.81;4872265;29;20552;-81
2022/01/12 01:42:12;;;;;;;17.42;7.28;;;;;;;-7.85;66.32;100068.13;4903508;29;20103;-82
2022/01/12 01:55:22;;;;;;;15.35;8.43;;;;;;;-7.77;66.32;100061.22;4918345;29;20052;-80
2022/01/12 01:57:50;;;;;;;14.32;8.02;;;;;;;-7.81;66.33;100056.88;4917291;29;20131;-81
2022/01/12 02:00:18;;;;;;;14.07;7.88;;;;;;;-7.78;66.17;100062.09;4876986;29;20402;-81
2022/01/12 02:02:56;;;;;;;18.38;8.32;;;;;;;-8.09;66.79;100059.28;4912480;29;20192;-80
2022/01/12 02:05:31;;;;;;;15.15;8.38;;;;;;;-8.10;66.89;100059.28;4885260;29;20052;-81
2022/01/12 02:07:58;;;;;;;17.30;7.43;;;;;;;-8.03;66.86;100050.69;4898508;29;20091;-81
2022/01/12 02:10:27;;;;;;;17.00;8.57;;;;;;;-8.13;67.19;100036.78;4867565;29;20049;-80
2022/01/12 02:12:55;;;;;;;14.40;8.30;;;;;;;-8.23;67.47;100042.78;4917250;29;20052;-83
2022/01/12 02:15:23;;;;;;;14.38;8.35;;;;;;;-8.25;67.66;100049.69;4905241;29;20108;-81
2022/01/12 02:18:13;;;;;;;14.82;8.52;;;;;;;-8.14;67.70;100053.22;4902519;29;20483;-83
2022/01/12 02:40:23;;;;;;;20.90;9.65;;;;;;;-7.74;66.39;100088.94;4900205;29;20139;-82
2022/01/12 02:51:17;;;;;;;17.60;9.65;;;;;;;-7.62;65.85;100091.59;4879768;29;20040;-80
2022/01/12 02:53:43;;;;;;;18.75;9.70;;;;;;;-7.71;66.15;100092.41;4866928;29;20517;-80
2022/01/12 02:56:18;;;;;;;18.30;9.85;;;;;;;-7.76;66.28;100088.91;4882351;29;20056;-81
2022/01/12 02:58:45;;;;;;;20.25;10.48;;;;;;;-7.78;66.29;100088.06;4881709;29;20189;-81
2022/01/12 03:04:03;;;;;;;15.18;9.77;;;;;;;-8.26;67.49;100084.25;4895623;29;20057;-83
2022/01/12 03:06:34;;;;;;;20.90;12.05;;;;;;;-8.39;68.04;100078.13;4897049;29;20489;-81
2022/01/12 03:09:01;;;;;;;18.60;10.05;;;;;;;-8.27;67.71;100087.72;4881646;29;20560;-80
2022/01/12 03:11:28;;;;;;;22.23;11.57;;;;;;;-8.39;67.77;100077.25;4882036;29;20064;-80
2022/01/12 03:13:59;;;;;;;20.55;12.15;;;;;;;-8.43;67.83;100080.69;4881958;29;20080;-80
2022/01/12 03:16:25;;;;;;;26.33;12.77;;;;;;;-8.29;67.70;100088.56;4866175;29;20491;-81
2022/01/12 03:18:54;;;;;;;27.88;13.35;;;;;;;-8.33;68.15;100092.84;4866590;29;20060;-80
2022/01/12 03:21:23;;;;;;;24.35;13.55;;;;;;;-8.22;67.76;100100.72;4866334;29;20044;-81
2022/01/12 03:23:50;;;;;;;22.63;13.30;;;;;;;-8.22;68.04;100096.41;4865578;29;20097;-80
2022/01/12 03:26:16;;;;;;;26.27;13.60;;;;;;;-8.20;68.03;100094.66;4881674;29;20070;-80
2022/01/12 03:28:42;;;;;;;21.42;13.10;;;;;;;-8.25;67.92;100098.94;4866200;29;20049;-80
2022/01/12 04:09:14;;;;;;;24.73;14.60;;;;;;;-8.98;70.25;100143.22;4915394;29;20059;-79
2022/01/12 04:11:40;;;;;;;32.70;19.25;;;;;;;-9.00;70.21;100137.13;4884333;29;20040;-81
2022/01/12 04:14:07;;;;;;;30.65;18.08;;;;;;;-8.98;70.18;100144.94;4900981;29;20040;-80
2022/01/12 04:16:33;;;;;;;31.55;19.30;;;;;;;-8.96;70.12;100145.81;4872430;29;20048;-82
2022/01/12 04:19:00;;;;;;;34.13;19.15;;;;;;;-8.93;70.15;100153.63;4872613;29;20044;-80
2022/01/12 04:21:30;;;;;;;29.50;16.92;;;;;;;-8.90;69.78;100151.06;4887964;29;20135;-81
2022/01/12 04:23:57;;;;;;;33.50;19.00;;;;;;;-8.86;69.94;100152.84;4920214;29;20408;-80
2022/01/12 04:26:23;;;;;;;27.70;17.27;;;;;;;-8.75;69.67;100161.59;4872303;29;20063;-80
2022/01/12 04:28:49;;;;;;;28.33;17.83;;;;;;;-8.69;69.71;100161.66;4919250;29;20131;-81
2022/01/12 04:31:15;;;;;;;29.67;17.45;;;;;;;-8.75;69.31;100151.25;4919352;29;20555;-80
2022/01/12 04:33:42;;;;;;;39.00;18.15;;;;;;;-8.73;69.40;100159.88;4857271;29;20040;-80
2022/01/12 04:36:08;;;;;;;32.88;18.77;;;;;;;-8.86;69.84;100158.03;4887525;29;20077;-81
2022/01/12 04:38:35;;;;;;;34.00;17.92;;;;;;;-8.93;70.00;100157.09;4903439;29;20052;-79
2022/01/12 04:41:04;;;;;;;32.17;17.33;;;;;;;-8.92;69.99;100171.78;4888776;29;20089;-85
2022/01/12 04:43:30;;;;;;;34.60;21.75;;;;;;;-9.00;70.27;100164.75;4885010;29;20060;-80
2022/01/12 04:46:20;;;;;;;27.13;17.73;;;;;;;-8.94;69.93;100180.41;4884508;29;20052;-81
2022/01/12 04:48:54;;;;;;;28.42;17.13;;;;;;;-8.89;69.88;100189.06;4856544;29;20056;-82
2022/01/12 04:51:21;;;;;;;29.42;16.35;;;;;;;-8.86;69.93;100189.13;4885995;29;20457;-81
2022/01/12 04:53:47;;;;;;;26.38;16.27;;;;;;;-8.88;69.68;100206.34;4878229;29;20172;-83
2022/01/12 04:56:13;;;;;;;27.13;17.23;;;;;;;-8.85;69.43;100202.09;4887376;29;20052;-80
2022/01/12 04:58:39;;;;;;;27.65;15.38;;;;;;;-8.81;69.72;100208.16;4887239;29;20047;-82
2022/01/12 05:01:10;;;;;;;28.20;13.80;;;;;;;-8.77;69.30;100199.56;4920196;29;20127;-85
2022/01/12 05:06:50;;;;;;;20.08;12.45;;;;;;;-8.82;69.13;100204.72;4913269;29;20239;-80
2022/01/12 05:15:03;;;;;;;19.58;11.82;;;;;;;-9.10;69.59;100216.47;4902407;29;20127;-80
2022/01/12 05:17:33;;;;;;;21.75;13.02;;;;;;;-8.99;69.82;100213.97;4918990;29;20052;-83
2022/01/12 05:19:59;;;;;;;24.33;12.68;;;;;;;-8.87;69.64;100213.31;4872077;29;20102;-78
2022/01/12 05:22:25;;;;;;;26.38;12.57;;;;;;;-9.11;69.71;100209.53;4887078;29;20048;-79
2022/01/12 05:24:52;;;;;;;20.98;12.57;;;;;;;-9.21;70.18;100202.50;4871311;29;20207;-78
2022/01/12 05:27:18;;;;;;;26.02;16.92;;;;;;;-9.25;70.29;100211.09;4901967;29;20162;-78
2022/01/12 05:29:44;;;;;;;29.13;16.48;;;;;;;-9.27;70.78;100206.72;4855929;29;20056;-76
2022/01/12 05:32:10;;;;;;;24.98;14.10;;;;;;;-9.29;71.24;100211.88;4919396;29;20095;-79
2022/01/12 05:34:38;;;;;;;31.58;17.08;;;;;;;-9.27;71.44;100217.94;4886989;29;20078;-79
2022/01/12 05:37:05;;;;;;;25.52;13.50;;;;;;;-9.23;71.07;100218.84;4933454;29;20048;-78
2022/01/12 05:39:31;;;;;;;33.13;18.40;;;;;;;-9.14;70.96;100218.97;4899057;29;20041;-79
2022/01/12 05:41:58;;;;;;;34.13;18.83;;;;;;;-9.05;70.63;100219.97;4898751;29;20064;-78
2022/01/12 05:44:25;;;;;;;30.52;17.73;;;;;;;-8.71;70.17;100225.56;4883386;29;20056;-80
2022/01/12 05:46:54;;;;;;;38.47;18.67;;;;;;;-8.70;69.46;100216.94;4883566;29;20088;-79
2022/01/12 05:49:36;;;;;;;36.85;18.38;;;;;;;-8.74;69.19;100232.44;4914741;29;20048;-81
2022/01/12 05:52:04;;;;;;;25.30;14.57;;;;;;;-8.82;69.04;100215.06;4898937;29;20096;-84
2022/01/12 05:54:30;;;;;;;27.27;16.17;;;;;;;-8.91;68.88;100211.50;4868139;29;20068;-79
2022/01/12 05:56:56;;;;;;;35.45;16.27;;;;;;;-8.80;69.17;100230.63;4914655;29;20119;-87
2022/01/12 05:59:23;;;;;;;24.45;14.50;;;;;;;-8.93;69.33;100220.97;4867638;29;20063;-80
2022/01/12 06:01:49;;;;;;;20.20;12.48;;;;;;;-9.11;69.85;100232.84;4914307;29;20357;-79
2022/01/12 06:04:15;;;;;;;37.50;18.15;;;;;;;-9.15;69.72;100230.19;4898870;29;20052;-78
2022/01/12 06:06:41;;;;;;;28.48;16.88;;;;;;;-9.10;69.93;100231.09;4914124;29;20090;-80
2022/01/12 06:09:07;;;;;;;36.75;20.23;;;;;;;-9.02;69.85;100228.66;4897907;29;20051;-79
2022/01/12 06:11:33;;;;;;;37.80;18.63;;;;;;;-8.79;69.43;100237.56;4870053;29;20159;-79
2022/01/12 06:14:03;;;;;;;47.97;23.85;;;;;;;-8.71;68.84;100245.44;4901716;29;20528;-79
2022/01/12 06:16:31;;;;;;;28.38;17.30;;;;;;;-8.84;69.60;100229.75;4874785;29;20055;-83
2022/01/12 06:18:57;;;;;;;39.25;21.00;;;;;;;-8.88;69.55;100237.44;4875650;29;20048;-82
2022/01/12 06:21:25;;;;;;;44.33;23.55;;;;;;;-8.98;70.14;100236.47;4907322;29;20053;-82
2022/01/12 06:23:59;;;;;;;42.80;21.85;;;;;;;-8.90;69.93;100224.47;4921560;29;20055;-78
2022/01/12 06:26:26;;;;;;;45.42;24.77;;;;;;;-8.62;69.62;100236.03;4900752;29;20040;-79
2022/01/12 06:31:38;;;;;;;44.70;24.52;;;;;;;-8.49;68.86;100236.19;4900913;29;20124;-78
2022/01/12 06:34:04;;;;;;;;;;;;;;;-8.58;68.90;100237.81;4900908;29;20058;-79
2022/01/12 06:36:30;;;;;;;50.22;22.17;;;;;;;-8.69;69.22;100244.59;4933277;29;20414;-82
2022/01/12 06:38:57;;;;;;;56.30;24.25;;;;;;;-8.65;69.12;100241.22;4916988;29;20059;-82
2022/01/12 06:41:24;;;;;;;59.85;31.38;;;;;;;-8.49;69.32;100243.97;4916661;29;20060;-82
2022/01/12 06:43:52;;;;;;;54.35;27.33;;;;;;;-8.38;69.12;100240.66;4885199;29;20044;-82
2022/01/12 06:46:29;;;;;;;;;;;;;;;-8.22;68.79;100239.03;4880364;29;20044;-86
2022/01/12 06:48:55;;;;;;;60.55;28.85;;;;;;;-7.95;68.29;100234.97;4919317;29;19970;-83
2022/01/12 06:51:21;;;;;;;63.83;31.88;;;;;;;-7.92;67.79;100235.00;4916544;29;20153;-82
2022/01/12 06:53:47;;;;;;;45.72;23.90;;;;;;;-8.04;67.40;100240.94;4902077;29;20043;-77
2022/01/12 06:56:15;;;;;;;51.38;29.25;;;;;;;-8.15;67.63;100243.44;4900087;29;20044;-80
2022/01/12 06:58:45;;;;;;;35.03;18.33;;;;;;;-8.27;67.98;100243.31;4899835;29;20083;-78
2022/01/12 07:01:13;;;;;;;58.58;28.92;;;;;;;-8.23;67.97;100234.72;4915819;29;20044;-83
2022/01/12 07:03:43;;;;;;;59.50;30.88;;;;;;;-8.06;67.83;100242.66;4884636;29;20054;-82
2022/01/12 07:06:10;;;;;;;68.25;34.88;;;;;;;-8.07;67.63;100246.09;4869306;29;20477;-81
2022/01/12 07:08:37;;;;;;;51.53;27.15;;;;;;;-8.26;67.95;100242.47;4900496;29;20103;-82
2022/01/12 07:11:05;;;;;;;50.63;27.05;;;;;;;-8.42;68.26;100238.88;4916048;29;20047;-82
2022/01/12 07:13:32;;;;;;;67.72;34.03;;;;;;;-8.40;68.39;100238.88;4897922;29;20456;-81
2022/01/12 07:15:58;;;;;;;55.30;30.17;;;;;;;-8.30;68.05;100240.69;4885154;29;20043;-82
2022/01/12 07:18:26;;;;;;;64.88;34.83;;;;;;;-8.38;68.04;100240.66;4885036;29;20099;-82
2022/01/12 07:20:52;;;;;;;52.03;28.45;;;;;;;-8.35;68.33;100244.94;4903245;29;20048;-80
2022/01/12 07:23:18;;;;;;;60.40;31.98;;;;;;;-8.02;68.20;100243.53;4869389;29;20189;-78
2022/01/12 07:25:44;;;;;;;52.67;30.30;;;;;;;-7.85;67.23;100239.38;4868998;29;20130;-80
2022/01/12 07:28:10;;;;;;;61.25;34.25;;;;;;;-7.50;67.41;100236.19;4853170;29;20551;-81
2022/01/12 07:30:36;;;;;;;61.90;33.70;;;;;;;-7.33;66.38;100232.00;4899710;29;20048;-80
2022/01/12 07:33:02;;;;;;;60.40;34.53;;;;;;;-7.15;65.72;100232.06;4916563;29;20051;-81
2022/01/12 07:35:28;;;;;;;54.33;30.80;;;;;;;-7.10;65.34;100242.53;4916749;29;20179;-82
2022/01/12 07:37:54;;;;;;;59.20;32.85;;;;;;;-6.92;64.41;100244.31;4918539;29;20096;-80
2022/01/12 07:40:20;;;;;;;67.43;32.53;;;;;;;-7.11;63.52;100235.56;4907502;29;20044;-84
2022/01/12 07:42:46;;;;;;;60.83;32.05;;;;;;;-7.14;64.32;100244.22;4875633;29;20060;-80
2022/01/12 07:45:13;;;;;;;59.70;33.50;;;;;;;-7.24;63.53;100250.22;4937837;29;20142;-83
2022/01/12 07:47:39;;;;;;;49.95;30.17;;;;;;;-7.27;63.68;100239.81;4864701;29;20188;-82
2022/01/12 07:50:08;;;;;;;53.67;31.75;;;;;;;-7.32;63.63;100259.69;4880017;29;20041;-78
2022/01/12 07:52:34;;;;;;;47.28;26.45;;;;;;;-7.34;63.45;100261.41;4880688;29;20080;-80
2022/01/12 07:55:02;;;;;;;46.25;26.00;;;;;;;-7.48;63.72;100269.13;4850539;29;20444;-81
2022/01/12 07:57:29;;;;;;;48.10;24.02;;;;;;;-7.64;63.79;100268.09;4866051;29;20056;-82
2022/01/12 07:59:55;;;;;;;40.63;21.23;;;;;;;-7.74;64.07;100276.69;4850064;29;20045;-81
2022/01/12 08:02:22;;;;;;;47.63;25.58;;;;;;;-7.73;64.45;100268.03;4880646;29;20043;-81
2022/01/12 08:04:48;;;;;;;40.47;24.42;;;;;;;-7.49;64.51;100266.47;4881945;29;20048;-78
2022/01/12 08:07:14;;;;;;;46.35;25.23;;;;;;;-7.35;63.90;100268.31;4865743;29;20065;-83
2022/01/12 08:09:41;;;;;;;46.55;26.08;;;;;;;-7.24;63.48;100268.41;4865244;29;20053;-83
2022/01/12 08:12:08;;;;;;;48.10;24.83;;;;;;;-6.95;62.66;100278.13;4880825;29;20048;-82
2022/01/12 08:14:35;;;;;;;42.80;24.17;;;;;;;-6.91;61.99;100282.47;4900295;29;20209;-85
2022/01/12 08:17:01;;;;;;;47.25;25.42;;;;;;;-6.93;61.87;100284.19;4881982;29;20041;-83
2022/01/12 08:19:28;;;;;;;42.25;25.45;;;;;;;-6.89;61.58;100278.13;4866906;29;20103;-82
2022/01/12 08:21:54;;;;;;;39.03;23.15;;;;;;;-6.94;61.58;100279.84;4896458;29;20052;-83
2022/01/12 08:24:20;;;;;;;47.22;24.38;;;;;;;-6.82;62.00;100297.25;4887229;29;20072;-85
2022/01/12 08:26:46;;;;;;;46.35;25.45;;;;;;;-6.35;61.94;100284.47;4895873;29;20068;-83
2022/01/12 08:29:15;;;;;;;45.08;26.38;;;;;;;-6.15;60.74;100282.78;4896766;29;20048;-82
2022/01/12 08:31:42;;;;;;;46.50;26.60;;;;;;;-6.20;60.69;100281.91;4902768;29;20037;-81
2022/01/12 08:34:09;;;;;;;55.05;26.75;;;;;;;-6.22;60.12;100294.03;4884946;29;20041;-81
2022/01/12 08:36:36;;;;;;;44.47;27.13;;;;;;;-6.01;60.24;100279.34;4883545;29;20492;-81
2022/01/12 08:39:07;;;;;;;54.20;28.85;;;;;;;-5.80;60.05;100283.69;4906799;29;20092;-83
2022/01/12 08:41:33;;;;;;;45.53;27.85;;;;;;;-5.64;59.32;100299.34;4904460;29;20057;-82
2022/01/12 08:43:59;;;;;;;43.53;26.38;;;;;;;-5.54;58.35;100286.31;4870156;29;20055;-81
2022/01/12 08:46:25;;;;;;;42.85;25.05;;;;;;;-5.52;58.17;100289.78;4918976;29;20067;-80
2022/01/12 08:48:51;;;;;;;47.38;25.40;;;;;;;-5.48;57.82;100288.94;4916473;29;20076;-83
2022/01/12 08:51:17;;;;;;;48.70;24.05;;;;;;;-5.40;57.70;100280.22;4899437;29;20087;-79
2022/01/12 08:53:43;;;;;;;45.15;27.27;;;;;;;-5.21;58.15;100281.09;4884500;29;20131;-81
2022/01/12 08:56:09;;;;;;;49.22;28.27;;;;;;;-5.12;57.46;100281.06;4869504;29;20048;-80
2022/01/12 08:58:37;;;;;;;44.35;26.60;;;;;;;-5.23;57.26;100281.94;4870050;29;20047;-82
2022/01/12 09:01:04;;;;;;;46.00;27.20;;;;;;;-5.00;57.74;100274.09;4902662;29;20054;-83
2022/01/12 09:03:31;;;;;;;47.00;27.10;;;;;;;-4.86;57.01;100272.31;4887460;29;20054;-81
2022/01/12 09:05:57;;;;;;;45.15;26.67;;;;;;;-4.76;56.32;100288.81;4886081;29;20135;-82
2022/01/12 09:08:23;;;;;;;46.83;27.63;;;;;;;-4.72;56.27;100280.97;4856094;29;20505;-80
2022/01/12 09:10:49;;;;;;;45.55;27.48;;;;;;;-4.53;56.41;100281.78;4902645;29;20040;-80
2022/01/12 09:13:15;;;;;;;53.35;26.40;;;;;;;-4.72;55.66;100290.56;4904570;29;20103;-83
2022/01/12 09:15:42;;;;;;;51.10;27.52;;;;;;;-4.63;55.87;100277.47;4902705;29;20135;-82
2022/01/12 09:18:07;;;;;;;51.83;27.20;;;;;;;-4.52;55.35;100285.25;4886749;29;20044;-82
2022/01/12 09:20:33;;;;;;;49.72;27.00;;;;;;;-4.48;55.54;100285.22;4919271;29;20043;-84
2022/01/12 09:22:59;;;;;;;38.30;22.60;;;;;;;-4.75;54.84;100286.19;4918447;29;20052;-80
2022/01/12 09:25:26;;;;;;;46.80;25.45;;;;;;;-4.81;55.18;100275.81;4902614;29;20127;-83
2022/01/12 09:27:53;;;;;;;54.95;26.73;;;;;;;-4.90;55.43;100283.63;4886798;29;20408;-81
2022/01/12 09:30:22;;;;;;;45.33;25.38;;;;;;;-4.77;55.52;100284.50;4902404;29;20134;-81
2022/01/12 09:32:48;;;;;;;36.17;22.48;;;;;;;-5.13;54.89;100287.16;4902953;29;20071;-80
2022/01/12 09:35:14;;;;;;;43.10;24.67;;;;;;;-5.10;55.83;100293.25;4902989;29;20044;-83
2022/01/12 09:37:40;;;;;;;42.25;23.00;;;;;;;-5.18;56.03;100286.31;4920913;29;20045;-84
2022/01/12 09:40:07;;;;;;;45.22;24.95;;;;;;;-5.09;56.12;100300.19;4874717;29;20040;-81
2022/01/12 09:42:33;;;;;;;35.45;21.92;;;;;;;-5.06;55.27;100300.19;4893637;29;20058;-81
2022/01/12 09:45:01;;;;;;;39.65;23.75;;;;;;;-4.91;55.61;100298.41;4894692;29;20130;-82
2022/01/12 09:47:27;;;;;;;38.45;23.58;;;;;;;-4.86;55.66;100295.78;4912982;29;20059;-82
2022/01/12 09:49:53;;;;;;;39.03;25.50;;;;;;;-4.80;55.48;100295.78;4907941;29;20090;-83
2022/01/12 09:52:19;;;;;;;44.25;24.25;;;;;;;-4.46;55.04;100299.16;4934902;29;20087;-82
2022/01/12 09:54:46;;;;;;;38.20;23.05;;;;;;;-4.44;54.58;100306.97;4934369;29;20044;-82
2022/01/12 09:57:12;;;;;;;41.60;23.73;;;;;;;-4.40;54.96;100300.84;4919602;29;20044;-82
2022/01/12 09:59:39;;;;;;;38.72;23.33;;;;;;;-4.49;54.10;100293.09;4871127;29;20484;-81
2022/01/12 10:02:12;;;;;;;35.00;21.08;;;;;;;-4.55;54.25;100313.97;4920921;29;20055;-81
2022/01/12 10:04:38;;;;;;;35.08;20.33;;;;;;;-4.61;53.94;100295.75;4908070;29;20130;-82
2022/01/12 10:07:05;;;;;;;39.60;21.20;;;;;;;-4.58;54.28;100306.16;4919858;29;20080;-83
2022/01/12 10:09:35;;;;;;;34.53;21.80;;;;;;;-4.36;54.01;100300.00;4902149;29;20043;-82
2022/01/12 10:12:06;;;;;;;39.30;21.88;;;;;;;-4.35;54.11;100286.06;4917788;29;20120;-83
2022/01/12 10:14:49;;;;;;;40.33;22.95;;;;;;;-4.51;53.77;100294.84;4902332;29;20233;-83
2022/01/12 10:17:19;;;;;;;37.75;23.38;;;;;;;-4.46;53.62;100291.31;4917900;29;20104;-83
2022/01/12 10:19:45;;;;;;;34.50;22.25;;;;;;;-4.52;53.69;100303.53;4870578;29;20056;-81
2022/01/12 10:22:14;;;;;;;47.60;26.52;;;;;;;-4.28;54.20;100294.75;4886424;29;20048;-84
2022/01/12 10:24:42;;;;;;;39.03;25.15;;;;;;;-4.19;53.46;100292.94;4917380;29;20059;-86
2022/01/12 10:27:16;;;;;;;38.22;23.33;;;;;;;-4.15;53.50;100294.66;4885979;29;20138;-84
2022/01/12 10:29:43;;;;;;;41.70;24.92;;;;;;;-4.13;53.11;100288.59;4885744;29;20048;-83
2022/01/12 10:32:09;;;;;;;44.28;25.65;;;;;;;-3.98;53.01;100302.41;4901774;29;20500;-83
2022/01/12 10:34:41;;;;;;;45.17;25.98;;;;;;;-4.03;53.03;100305.91;4901941;29;20094;-83
2022/01/12 10:37:19;;;;;;;45.67;26.10;;;;;;;-4.24;52.90;100299.06;4901428;29;20067;-83
2022/01/12 10:39:49;;;;;;;41.03;25.10;;;;;;;-4.31;53.37;100295.63;4885537;29;20456;-81
2022/01/12 10:42:23;;;;;;;47.78;25.17;;;;;;;-4.32;53.53;100306.94;4885944;29;20078;-81
2022/01/12 10:44:51;;;;;;;40.53;23.80;;;;;;;-4.32;53.34;100311.31;4901161;29;20044;-80
2022/01/12 10:47:22;;;;;;;36.20;23.27;;;;;;;-4.64;52.65;100305.28;4870303;29;20449;-82
2022/01/12 10:49:54;;;;;;;42.45;23.88;;;;;;;-4.98;53.90;100303.66;4885489;29;20059;-83
2022/01/12 10:52:21;;;;;;;47.15;24.95;;;;;;;-4.92;54.62;100321.91;4916593;29;20051;-83
2022/01/12 10:54:52;;;;;;;45.92;25.52;;;;;;;-4.86;54.08;100321.00;4885371;29;20043;-83
2022/01/12 10:57:26;;;;;;;43.47;24.20;;;;;;;-4.86;53.95;100321.00;4918067;29;20052;-83
2022/01/12 11:00:02;;;;;;;47.40;23.60;;;;;;;-5.02;54.47;100326.25;4916383;29;20052;-82
2022/01/12 11:02:29;;;;;;;48.63;25.45;;;;;;;-5.12;53.94;100308.88;4932134;29;20052;-82
2022/01/12 11:04:58;;;;;;;44.13;23.67;;;;;;;-5.08;54.11;100327.97;4885536;29;20465;-81
2022/01/12 11:07:25;;;;;;;42.25;24.05;;;;;;;-5.03;54.16;100326.25;4901225;29;20354;-83
2022/01/12 11:09:56;;;;;;;51.50;27.42;;;;;;;-4.94;54.32;100327.09;4900871;29;20063;-85
2022/01/12 11:12:22;;;;;;;52.05;32.03;;;;;;;-4.92;53.84;100329.72;4885516;29;20075;-83
2022/01/12 11:14:49;;;;;;;62.35;38.63;;;;;;;-4.80;54.06;100339.25;4885246;29;20052;-81
2022/01/12 11:17:16;;;;;;;50.88;33.10;;;;;;;-4.92;53.22;100347.97;4915799;29;20108;-83
2022/01/12 11:20:02;;;;;;;59.33;35.05;;;;;;;-5.19;53.60;100346.22;4917719;29;20160;-83
2022/01/12 11:23:06;;;;;;;59.05;35.75;;;;;;;-5.42;54.05;100349.69;4915423;29;20051;-83
2022/01/12 11:25:36;;;;;;;48.08;30.63;;;;;;;-5.71;54.17;100356.63;4901717;29;20154;-83
2022/01/12 11:28:12;;;;;;;40.53;25.92;;;;;;;-6.17;54.99;100357.41;4900942;29;20044;-83
2022/01/12 11:30:45;;;;;;;37.85;23.13;;;;;;;-6.63;55.98;100345.88;4902137;29;20048;-79
2022/01/12 11:33:12;;;;;;;45.22;23.75;;;;;;;-6.75;56.40;100358.81;4900702;29;20115;-79
2022/01/12 11:35:40;;;;;;;33.50;20.35;;;;;;;-7.12;57.35;100361.16;4900305;29;20048;-78
2022/01/12 11:38:07;;;;;;;37.20;19.23;;;;;;;-7.45;57.64;100351.34;4915951;29;20122;-80
2022/01/12 11:40:37;;;;;;;31.90;18.92;;;;;;;-7.55;58.07;100359.94;4900367;29;20505;-80
2022/01/12 11:43:05;;;;;;;33.05;18.27;;;;;;;-7.71;58.38;100362.38;4917235;29;20139;-82
2022/01/12 11:45:31;;;;;;;29.23;16.42;;;;;;;-7.90;59.26;100360.41;4916757;29;20048;-81
2022/01/12 11:47:58;;;;;;;31.25;17.63;;;;;;;-7.97;59.33;100369.88;4900304;29;20044;-78
2022/01/12 11:50:24;;;;;;;30.08;16.30;;;;;;;-8.14;59.89;100364.50;4884624;29;20040;-81
2022/01/12 11:52:50;;;;;;;30.73;16.23;;;;;;;-8.28;60.40;100376.41;4900048;29;20590;-83
2022/01/12 11:55:17;;;;;;;28.50;15.60;;;;;;;-8.37;60.03;100373.75;4915741;29;20484;-80
2022/01/12 11:57:49;;;;;;;29.30;16.15;;;;;;;-8.52;60.47;100376.16;4884345;29;20142;-79
2022/01/12 12:00:17;;;;;;;27.23;15.13;;;;;;;-8.65;60.62;100370.81;4899838;29;20107;-80
2022/01/12 12:02:49;;;;;;;28.85;16.00;;;;;;;-8.71;61.18;100381.06;4915601;29;20044;-79
2022/01/12 12:05:17;;;;;;;26.75;16.10;;;;;;;-8.81;61.90;100386.97;4891298;29;20500;-84
2022/01/12 12:08:02;;;;;;;32.20;16.27;;;;;;;-9.02;62.35;100384.94;4900500;29;20083;-84
2022/01/12 12:10:30;;;;;;;27.92;16.35;;;;;;;-9.06;62.37;100381.41;4885877;29;20151;-85
2022/01/12 12:12:57;;;;;;;31.23;14.88;;;;;;;-9.20;63.18;100374.28;4868984;29;20104;-87
2022/01/12 12:15:24;;;;;;;30.25;16.30;;;;;;;-9.36;63.86;100373.16;4884623;29;20412;-86
2022/01/12 12:17:50;;;;;;;31.17;15.00;;;;;;;-9.48;64.63;100391.03;4869096;29;20480;-81
2022/01/12 12:20:18;;;;;;;30.70;17.05;;;;;;;-9.48;64.13;100388.47;4899774;29;20040;-78
2022/01/12 12:22:45;;;;;;;34.28;16.25;;;;;;;-9.65;65.20;100370.94;4868830;29;20048;-83
2022/01/12 12:25:18;;;;;;;28.08;16.00;;;;;;;-9.58;64.93;100388.31;4883552;29;20044;-84
2022/01/12 12:28:06;;;;;;;24.50;14.27;;;;;;;-9.72;66.01;100388.91;4853858;29;20103;-84
2022/01/12 12:30:34;;;;;;;28.30;17.02;;;;;;;-9.77;66.30;100390.53;4885484;29;20064;-86
2022/01/12 12:33:08;;;;;;;25.27;15.10;;;;;;;-9.78;66.40;100400.00;4899346;29;20044;-85
2022/01/12 12:35:35;;;;;;;26.63;13.77;;;;;;;-9.76;66.53;100397.47;4869368;29;20130;-85
2022/01/12 12:38:06;;;;;;;32.47;16.55;;;;;;;-9.78;66.41;100389.66;4871902;29;20468;-80
2022/01/12 12:40:36;;;;;;;30.10;15.95;;;;;;;-9.74;65.82;100395.75;4918537;29;20119;-80
2022/01/12 12:43:18;;;;;;;29.33;15.75;;;;;;;-9.70;65.83;100397.56;4917720;29;20110;-82
2022/01/12 12:45:45;;;;;;;33.35;16.50;;;;;;;-9.72;65.58;100394.94;4888111;29;20044;-86
2022/01/12 12:48:21;;;;;;;27.83;15.02;;;;;;;-9.74;65.92;100399.25;4918307;29;20060;-86
2022/01/12 12:50:57;;;;;;;30.38;15.20;;;;;;;-9.77;65.45;100406.06;4888103;29;20050;-90
2022/01/12 12:53:30;;;;;;;30.98;16.90;;;;;;;-9.83;65.54;100407.69;4919421;29;20069;-79
2022/01/12 12:55:57;;;;;;;26.27;15.38;;;;;;;-9.86;65.52;100406.75;4917916;29;20047;-83
2022/01/12 12:58:27;;;;;;;30.63;15.75;;;;;;;-9.80;65.38;100406.88;4902688;29;20048;-81
2022/01/12 13:00:54;;;;;;;29.00;17.27;;;;;;;-9.81;65.20;100405.13;4902653;29;20099;-79
2022/01/12 13:03:19;;;;;;;32.58;15.85;;;;;;;-9.77;64.97;100414.69;4887188;29;20158;-79